createdAt,value
2022-12-11T00:42:33.454Z,59.73
2022-12-11T00:45:01.835Z,59.73
2022-12-11T00:47:30.524Z,64.17
2022-12-11T00:49:58.830Z,59.03
2022-12-11T00:52:27.147Z,58.57
2022-12-11T00:54:55.496Z,35.33
2022-12-11T00:57:23.926Z,47.73
2022-12-11T00:59:53.570Z,48.53
2022-12-11T01:02:21.917Z,46.20
2022-12-11T01:04:50.235Z,53.70
2022-12-11T01:07:18.612Z,63.97
2022-12-11T01:10:04.492Z,54.80
2022-12-11T01:12:32.821Z,57.77
2022-12-11T01:15:02.543Z,46.77
2022-12-11T01:17:30.873Z,51.40
2022-12-11T01:19:59.211Z,56.80
2022-12-11T01:22:27.518Z,49.37
2022-12-11T01:24:55.842Z,51.70
2022-12-11T01:27:24.167Z,41.17
2022-12-11T01:29:52.728Z,50.37
2022-12-11T01:32:22.366Z,44.97
2022-12-11T01:34:50.854Z,49.70
2022-12-11T01:37:19.149Z,29.87
2022-12-11T01:39:47.464Z,32.50
2022-12-11T01:42:18.238Z,48.73
2022-12-11T01:45:19.810Z,41.50
2022-12-11T01:47:49.659Z,44.27
2022-12-11T01:50:18.145Z,11.10
2022-12-11T01:52:48.574Z,23.37
2022-12-11T01:55:17.950Z,8.13
2022-12-11T01:57:47.819Z,5.27
2022-12-11T02:00:16.742Z,8.83
2022-12-11T02:02:45.074Z,9.10
2022-12-11T02:05:14.828Z,22.27
2022-12-11T02:07:45.627Z,14.77
2022-12-11T02:10:14.132Z,29.30
2022-12-11T02:12:44.841Z,8.73
2022-12-11T02:15:14.679Z,31.30
2022-12-11T02:17:44.860Z,16.47
2022-12-11T02:20:18.029Z,39.73
2022-12-11T02:22:55.945Z,34.43
2022-12-11T02:25:27.674Z,13.70
2022-12-11T02:27:58.340Z,33.57
2022-12-11T02:30:28.334Z,15.77
2022-12-11T02:32:57.585Z,37.47
2022-12-11T02:35:28.290Z,37.10
2022-12-11T02:37:58.795Z,37.33
2022-12-11T02:40:29.598Z,28.60
2022-12-11T02:42:59.794Z,39.03
2022-12-11T02:45:30.412Z,36.03
2022-12-11T02:48:00.529Z,42.13
2022-12-11T02:50:29.225Z,45.27
2022-12-11T02:52:58.216Z,49.80
2022-12-11T02:55:28.267Z,55.97
2022-12-11T02:57:59.953Z,52.87
2022-12-11T03:00:30.320Z,38.27
2022-12-11T03:02:58.766Z,57.57
2022-12-11T03:05:27.965Z,59.17
2022-12-11T03:07:56.383Z,47.97
2022-12-11T03:10:25.267Z,51.47
2022-12-11T03:12:55.136Z,49.20
2022-12-11T03:15:25.141Z,57.43
2022-12-11T03:18:01.657Z,30.17
2022-12-11T03:20:34.224Z,46.67
2022-12-11T03:23:06.445Z,52.13
2022-12-11T03:25:36.525Z,15.70
2022-12-11T03:28:08.308Z,52.67
2022-12-11T03:30:37.740Z,55.30
2022-12-11T03:33:09.861Z,47.90
2022-12-11T03:35:40.664Z,55.17
2022-12-11T03:38:10.377Z,22.63
2022-12-11T03:40:40.568Z,47.53
2022-12-11T03:43:09.153Z,63.17
2022-12-11T03:45:39.833Z,50.07
2022-12-11T03:48:11.732Z,34.17
2022-12-11T03:50:41.419Z,55.73
2022-12-11T03:53:09.892Z,51.60
2022-12-11T03:55:39.389Z,41.50
2022-12-11T03:58:07.801Z,17.53
2022-12-11T04:00:36.427Z,32.87
2022-12-11T04:03:14.566Z,21.63
2022-12-11T04:05:46.102Z,5.43
2022-12-11T04:08:14.963Z,16.10
2022-12-11T04:10:43.686Z,5.90
2022-12-11T04:13:12.305Z,19.00
2022-12-11T04:15:40.180Z,11.73
2022-12-11T04:18:27.064Z,5.53
2022-12-11T04:21:14.886Z,13.40
2022-12-11T04:24:00.675Z,30.37
2022-12-11T04:26:29.030Z,48.73
2022-12-11T04:28:57.416Z,43.73
2022-12-11T04:31:25.936Z,37.83
2022-12-11T04:33:54.309Z,43.73
2022-12-11T04:36:23.984Z,41.53
2022-12-11T04:38:52.365Z,46.77
2022-12-11T04:41:20.727Z,45.43
2022-12-11T04:43:49.065Z,43.80
2022-12-11T04:46:19.370Z,44.27
2022-12-11T04:48:52.387Z,47.77
2022-12-11T04:51:25.630Z,43.23
2022-12-11T04:53:54.018Z,41.60
2022-12-11T04:56:22.786Z,35.43
2022-12-11T04:58:51.133Z,20.93
2022-12-11T05:01:21.245Z,31.53
2022-12-11T05:03:49.622Z,42.27
2022-12-11T05:06:17.941Z,31.70
2022-12-11T05:08:47.717Z,40.97
2022-12-11T05:11:17.535Z,29.97
2022-12-11T05:13:46.515Z,40.93
2022-12-11T05:16:15.694Z,50.80
2022-12-11T05:18:44.150Z,42.90
2022-12-11T05:21:14.389Z,54.80
2022-12-11T05:23:43.207Z,50.97
2022-12-11T05:26:15.030Z,57.20
2022-12-11T05:28:43.766Z,50.63
2022-12-11T05:31:14.361Z,33.17
2022-12-11T05:33:42.818Z,44.37
2022-12-11T05:36:12.030Z,51.77
2022-12-11T05:38:40.351Z,44.53
2022-12-11T05:41:09.027Z,49.30
2022-12-11T05:43:38.744Z,52.20
2022-12-11T05:46:08.029Z,43.20
2022-12-11T05:48:36.915Z,51.30
2022-12-11T05:51:06.013Z,53.60
2022-12-11T05:53:35.005Z,53.90
2022-12-11T05:56:04.144Z,46.30
2022-12-11T05:58:32.734Z,59.03
2022-12-11T06:01:02.764Z,50.27
2022-12-11T06:03:31.092Z,65.27
2022-12-11T06:05:59.395Z,41.70
2022-12-11T06:08:27.702Z,57.37
2022-12-11T06:10:56.068Z,60.03
2022-12-11T06:13:24.468Z,56.23
2022-12-11T06:15:52.797Z,44.63
2022-12-11T06:18:22.554Z,53.77
2022-12-11T06:20:50.894Z,47.97
2022-12-11T06:23:19.227Z,49.67
2022-12-11T06:25:47.591Z,25.90
2022-12-11T06:28:15.963Z,42.90
2022-12-11T06:30:44.985Z,32.43
2022-12-11T06:33:13.439Z,41.63
2022-12-11T06:35:43.118Z,39.87
2022-12-11T06:38:11.570Z,38.43
2022-12-11T06:40:40.721Z,33.40
2022-12-11T06:43:08.998Z,31.53
2022-12-11T06:45:39.111Z,30.77
2022-12-11T06:48:07.635Z,23.83
2022-12-11T06:50:35.951Z,28.23
2022-12-11T06:53:05.613Z,27.83
2022-12-11T06:55:36.427Z,30.47
2022-12-11T06:58:04.764Z,28.27
2022-12-11T07:00:33.208Z,25.93
2022-12-11T07:03:01.539Z,24.70
2022-12-11T07:05:29.813Z,28.77
2022-12-11T07:07:58.202Z,23.50
2022-12-11T07:10:27.922Z,27.23
2022-12-11T07:12:56.243Z,26.73
2022-12-11T07:15:24.641Z,32.80
2022-12-11T07:17:52.925Z,31.17
2022-12-11T07:20:21.351Z,27.70
2022-12-11T07:22:49.642Z,25.87
2022-12-11T07:25:18.190Z,22.43
2022-12-11T07:27:47.922Z,24.67
2022-12-11T07:30:16.297Z,34.90
2022-12-11T07:32:44.643Z,29.97
2022-12-11T07:35:13.311Z,27.63
2022-12-11T07:37:42.514Z,33.60
2022-12-11T07:40:11.451Z,34.73
2022-12-11T07:42:44.536Z,29.60
2022-12-11T07:45:15.788Z,28.97
2022-12-11T07:47:44.126Z,31.50
2022-12-11T07:50:12.790Z,27.87
2022-12-11T07:52:41.121Z,30.90
2022-12-11T07:55:10.018Z,30.67
2022-12-11T07:57:38.735Z,32.63
2022-12-11T08:00:07.721Z,36.03
2022-12-11T08:02:37.737Z,32.30
2022-12-11T08:05:06.633Z,28.00
2022-12-11T08:07:36.324Z,31.30
2022-12-11T08:10:04.836Z,29.87
2022-12-11T08:12:33.202Z,25.10
2022-12-11T08:15:01.499Z,26.23
2022-12-11T08:17:33.908Z,26.63
2022-12-11T08:20:06.928Z,24.10
2022-12-11T08:22:36.223Z,21.97
2022-12-11T08:25:04.558Z,24.97
2022-12-11T08:27:32.888Z,26.57
2022-12-11T08:30:01.217Z,24.00
2022-12-11T08:32:29.521Z,24.63
2022-12-11T08:34:57.898Z,22.27
2022-12-11T08:37:27.925Z,24.40
2022-12-11T08:39:56.240Z,26.23
2022-12-11T08:42:24.617Z,12.67
2022-12-11T08:44:52.897Z,19.37
2022-12-11T08:47:21.229Z,21.37
2022-12-11T08:49:49.558Z,20.67
2022-12-11T08:52:17.867Z,20.70
2022-12-11T08:54:48.695Z,15.63
2022-12-11T08:57:17.288Z,14.87
2022-12-11T08:59:45.581Z,29.83
2022-12-11T09:02:14.234Z,26.37
2022-12-11T09:04:42.802Z,25.47
2022-12-11T09:07:11.122Z,22.30
2022-12-11T09:09:39.439Z,25.77
2022-12-11T09:12:09.187Z,19.40
2022-12-11T09:14:37.522Z,17.60
2022-12-11T09:17:06.472Z,26.27
2022-12-11T09:19:34.820Z,29.83
2022-12-11T09:22:03.233Z,26.37
2022-12-11T09:24:31.716Z,18.43
2022-12-11T09:27:00.190Z,21.73
2022-12-11T09:29:30.096Z,24.77
2022-12-11T09:31:58.639Z,27.63
2022-12-11T09:34:29.346Z,16.60
2022-12-11T09:36:58.340Z,22.37
2022-12-11T09:39:26.899Z,27.67
2022-12-11T09:41:58.164Z,29.47
2022-12-11T09:44:33.298Z,27.50
2022-12-11T09:47:02.211Z,28.40
2022-12-11T09:49:35.891Z,25.47
2022-12-11T09:52:08.946Z,31.73
2022-12-11T09:54:37.910Z,29.13
2022-12-11T09:57:12.382Z,28.17
2022-12-11T09:59:47.739Z,29.13
2022-12-11T10:02:24.375Z,30.00
2022-12-11T10:04:56.082Z,15.50
2022-12-11T10:07:28.477Z,17.63
2022-12-11T10:10:00.850Z,23.57
2022-12-11T10:12:36.010Z,16.33
2022-12-11T10:15:18.418Z,22.23
2022-12-11T10:17:46.951Z,27.93
2022-12-11T10:20:26.893Z,24.20
2022-12-11T10:22:56.828Z,24.20
2022-12-11T10:25:28.544Z,24.10
2022-12-11T10:27:57.673Z,21.63
2022-12-11T10:30:31.667Z,20.00
2022-12-11T10:33:05.592Z,22.67
2022-12-11T10:35:37.051Z,19.73
2022-12-11T10:38:14.163Z,10.27
2022-12-11T10:40:44.807Z,19.30
2022-12-11T10:43:13.622Z,12.00
2022-12-11T10:45:51.934Z,15.43
2022-12-11T10:48:20.525Z,20.37
2022-12-11T10:50:58.071Z,19.60
2022-12-11T10:53:27.584Z,13.20
2022-12-11T10:55:58.040Z,17.00
2022-12-11T10:58:27.711Z,15.63
2022-12-11T11:01:05.404Z,18.23
2022-12-11T11:03:36.858Z,16.20
2022-12-11T11:06:09.536Z,19.80
2022-12-11T11:08:40.528Z,15.30
2022-12-11T11:11:09.063Z,18.97
2022-12-11T11:13:37.376Z,22.93
2022-12-11T11:16:09.883Z,7.00
2022-12-11T11:18:38.348Z,17.87
2022-12-11T11:21:06.954Z,9.90
2022-12-11T11:23:39.819Z,16.93
2022-12-11T11:26:11.053Z,21.53
2022-12-11T11:28:41.569Z,21.43
2022-12-11T11:31:13.759Z,23.63
2022-12-11T11:33:48.459Z,17.63
2022-12-11T11:36:21.977Z,23.97
2022-12-11T11:38:52.396Z,25.03
2022-12-11T11:41:22.988Z,19.77
2022-12-11T11:43:52.536Z,23.10
2022-12-11T11:46:25.599Z,17.77
2022-12-11T11:49:00.229Z,17.73
2022-12-11T11:51:31.414Z,15.97
2022-12-11T11:54:01.926Z,21.80
2022-12-11T11:56:35.084Z,21.93
2022-12-11T11:59:08.517Z,18.37
2022-12-11T12:01:38.502Z,23.63
2022-12-11T12:04:07.021Z,21.90
2022-12-11T12:06:51.938Z,18.90
2022-12-11T12:09:26.984Z,25.70
2022-12-11T12:11:59.331Z,37.70
2022-12-11T12:14:51.531Z,15.43
2022-12-11T12:17:24.964Z,25.87
2022-12-11T12:19:57.096Z,29.77
2022-12-11T12:22:49.536Z,30.37
2022-12-11T12:25:20.786Z,26.83
2022-12-11T12:27:56.114Z,28.53
2022-12-11T12:30:24.739Z,29.50
2022-12-11T12:33:00.302Z,29.93
2022-12-11T12:35:36.309Z,23.60
2022-12-11T12:38:09.412Z,22.40
2022-12-11T12:40:41.637Z,28.77
2022-12-11T12:43:19.894Z,27.33
2022-12-11T12:45:52.568Z,24.83
2022-12-11T12:48:22.967Z,18.23
2022-12-11T12:50:52.618Z,24.80
2022-12-11T12:53:22.390Z,26.43
2022-12-11T12:55:51.104Z,27.70
2022-12-11T12:58:29.445Z,31.57
2022-12-11T13:01:08.492Z,28.27
2022-12-11T13:03:39.760Z,34.70
2022-12-11T13:06:09.531Z,30.20
2022-12-11T13:08:41.433Z,32.27
2022-12-11T13:11:12.020Z,26.40
2022-12-11T13:13:41.082Z,31.13
2022-12-11T13:16:10.861Z,27.50
2022-12-11T13:18:41.108Z,28.63
2022-12-11T13:21:24.355Z,27.73
2022-12-11T13:23:53.075Z,22.23
2022-12-11T13:26:29.719Z,27.77
2022-12-11T13:28:58.230Z,31.60
2022-12-11T13:31:37.016Z,31.73
2022-12-11T13:34:13.939Z,22.50
2022-12-11T13:36:42.996Z,21.37
2022-12-11T13:39:18.818Z,6.73
2022-12-11T13:41:48.529Z,25.93
2022-12-11T13:44:19.950Z,20.80
2022-12-11T13:46:48.331Z,21.37
2022-12-11T13:49:23.321Z,7.40
2022-12-11T13:51:55.921Z,5.97
2022-12-11T13:54:24.368Z,10.97
2022-12-11T13:56:56.779Z,7.17
2022-12-11T13:59:29.832Z,20.43
2022-12-11T14:02:00.536Z,21.93
2022-12-11T14:04:30.662Z,27.53
2022-12-11T14:07:00.011Z,24.73
2022-12-11T14:09:29.362Z,25.77
2022-12-11T14:11:59.287Z,29.00
2022-12-11T14:14:31.374Z,25.77
2022-12-11T14:16:59.819Z,24.87
2022-12-11T14:19:29.250Z,20.63
2022-12-11T14:22:00.045Z,23.90
2022-12-11T14:24:28.544Z,27.67
2022-12-11T14:26:57.281Z,26.77
2022-12-11T14:29:30.777Z,21.57
2022-12-11T14:32:01.474Z,26.90
2022-12-11T14:34:32.432Z,29.97
2022-12-11T14:37:02.757Z,33.03
2022-12-11T14:39:34.915Z,36.53
2022-12-11T14:42:04.940Z,36.13
2022-12-11T14:44:35.362Z,33.53
2022-12-11T14:47:05.213Z,19.47
2022-12-11T14:49:40.284Z,30.80
2022-12-11T14:52:15.371Z,34.87
2022-12-11T14:54:45.967Z,38.97
2022-12-11T14:57:20.160Z,37.50
2022-12-11T14:59:50.022Z,32.27
2022-12-11T15:02:29.951Z,35.73
2022-12-11T15:05:08.037Z,39.30
2022-12-11T15:07:38.428Z,39.23
2022-12-11T15:10:07.207Z,37.97
2022-12-11T15:12:35.834Z,32.03
2022-12-11T15:15:06.285Z,34.33
2022-12-11T15:17:36.954Z,35.63
2022-12-11T15:20:08.175Z,23.27
2022-12-11T15:22:38.030Z,32.17
2022-12-11T15:25:06.947Z,44.20
2022-12-11T15:27:36.803Z,30.43
2022-12-11T15:30:17.818Z,41.60
2022-12-11T15:32:46.150Z,42.30
2022-12-11T15:35:25.111Z,44.33
2022-12-11T15:37:55.504Z,52.77
2022-12-11T15:40:23.870Z,40.30
2022-12-11T15:42:52.696Z,20.63
2022-12-11T15:45:22.452Z,59.07
2022-12-11T15:47:51.286Z,68.83
2022-12-11T15:50:20.854Z,61.07
2022-12-11T15:52:49.963Z,77.70
2022-12-11T15:55:20.487Z,67.07
2022-12-11T15:57:51.201Z,67.20
2022-12-11T16:00:20.520Z,53.80
2022-12-11T16:02:49.459Z,47.87
2022-12-11T16:05:18.195Z,40.70
2022-12-11T16:07:46.632Z,40.40
2022-12-11T16:10:16.196Z,43.47
2022-12-11T16:12:46.216Z,35.60
2022-12-11T16:15:20.124Z,32.07
2022-12-11T16:17:51.676Z,43.03
2022-12-11T16:20:20.678Z,44.77
2022-12-11T16:22:49.283Z,15.43
2022-12-11T16:25:17.644Z,40.03
2022-12-11T16:27:47.547Z,43.20
2022-12-11T16:30:16.007Z,42.10
2022-12-11T16:32:45.962Z,44.83
2022-12-11T16:35:14.406Z,43.90
2022-12-11T16:37:42.874Z,36.03
2022-12-11T16:40:12.014Z,49.23
2022-12-11T16:42:40.364Z,28.10
2022-12-11T16:45:12.686Z,35.37
2022-12-11T16:47:41.215Z,42.87
2022-12-11T16:50:10.553Z,38.93
2022-12-11T16:52:39.011Z,39.47
2022-12-11T16:55:07.776Z,38.07
2022-12-11T16:57:37.077Z,38.87
2022-12-11T17:00:06.473Z,38.90
2022-12-11T17:02:36.230Z,34.13
2022-12-11T17:05:04.651Z,35.63
2022-12-11T17:07:33.160Z,36.10
2022-12-11T17:10:02.925Z,31.63
2022-12-11T17:12:31.321Z,32.87
2022-12-11T17:14:59.933Z,37.40
2022-12-11T17:17:28.201Z,32.53
2022-12-11T17:19:57.966Z,32.53
2022-12-11T17:22:26.305Z,34.87
2022-12-11T17:24:54.912Z,13.10
2022-12-11T17:27:23.198Z,26.33
2022-12-11T17:29:51.518Z,23.73
2022-12-11T17:32:19.940Z,25.67
2022-12-11T17:34:50.461Z,27.43
2022-12-11T17:37:20.282Z,26.10
2022-12-11T17:39:48.598Z,27.60
2022-12-11T17:42:16.889Z,15.73
2022-12-11T17:44:46.427Z,29.57
2022-12-11T17:47:15.332Z,22.90
2022-12-11T17:49:43.718Z,22.50
2022-12-11T17:52:12.060Z,21.87
2022-12-11T17:54:41.756Z,18.77
2022-12-11T17:57:10.087Z,23.33
2022-12-11T17:59:38.524Z,24.63
2022-12-11T18:02:06.953Z,23.37
2022-12-11T18:04:35.698Z,22.83
2022-12-11T18:07:04.021Z,25.73
2022-12-11T18:09:32.337Z,20.47
2022-12-11T18:12:02.038Z,18.70
2022-12-11T18:14:30.404Z,20.00
2022-12-11T18:16:58.755Z,16.83
2022-12-11T18:19:27.238Z,18.00
2022-12-11T18:21:56.288Z,16.37
2022-12-11T18:24:25.850Z,18.50
2022-12-11T18:26:54.170Z,25.33
2022-12-11T18:29:23.846Z,24.33
2022-12-11T18:31:52.319Z,26.43
2022-12-11T18:34:20.829Z,20.67
2022-12-11T18:36:49.189Z,22.30
2022-12-11T18:39:17.560Z,11.90
2022-12-11T18:41:54.053Z,23.97
2022-12-11T18:44:28.154Z,26.43
2022-12-11T18:46:56.535Z,30.60
2022-12-11T18:49:24.842Z,26.63
2022-12-11T18:51:53.159Z,27.33
2022-12-11T18:54:21.861Z,24.63
2022-12-11T18:56:50.195Z,23.60
2022-12-11T18:59:18.590Z,25.77
2022-12-11T19:06:49.381Z,30.03
2022-12-11T19:09:48.073Z,27.77
2022-12-11T19:20:18.833Z,32.70
2022-12-11T19:26:43.223Z,13.63
2022-12-11T19:29:45.446Z,11.67
2022-12-11T19:32:47.848Z,30.23
2022-12-11T19:35:50.378Z,15.13
2022-12-11T19:38:54.362Z,39.37
2022-12-11T19:48:41.681Z,35.03
2022-12-11T19:54:34.033Z,28.33
2022-12-11T20:00:36.380Z,25.37
2022-12-11T20:06:01.986Z,38.57
2022-12-11T20:08:45.968Z,35.07
2022-12-11T20:11:22.248Z,32.83
2022-12-11T20:13:55.487Z,31.70
2022-12-11T20:16:53.265Z,33.93
2022-12-11T20:19:22.085Z,23.30
2022-12-11T20:21:57.132Z,34.97
2022-12-11T20:24:26.844Z,25.33
2022-12-11T20:26:58.160Z,31.97
2022-12-11T20:29:37.866Z,33.67
2022-12-11T20:32:07.447Z,30.90
2022-12-11T20:34:44.479Z,31.80
2022-12-11T20:37:13.658Z,26.63
2022-12-11T20:39:53.272Z,18.73
2022-12-11T20:42:32.523Z,30.07
2022-12-11T20:45:20.734Z,25.57
2022-12-11T20:48:16.653Z,23.77
2022-12-11T20:51:09.328Z,26.43
2022-12-11T20:54:12.651Z,33.53
2022-12-11T21:00:45.334Z,24.10
2022-12-11T21:04:06.684Z,26.33
2022-12-11T21:06:42.479Z,28.53
2022-12-11T21:09:18.085Z,27.53
2022-12-11T21:11:51.167Z,24.27
2022-12-11T21:14:31.422Z,19.80
2022-12-11T21:17:02.064Z,22.27
2022-12-11T21:19:35.989Z,18.53
2022-12-11T21:22:07.174Z,13.80
2022-12-11T21:24:58.037Z,23.40
2022-12-11T21:27:28.812Z,20.87
2022-12-11T21:29:57.539Z,11.03
2022-12-11T21:32:29.836Z,26.10
2022-12-11T21:34:59.762Z,5.77
2022-12-11T21:53:05.931Z,9.93
2022-12-11T21:56:01.269Z,4.10
2022-12-11T22:08:52.352Z,15.10
2022-12-11T22:11:24.174Z,13.43
2022-12-11T22:14:08.785Z,25.00
2022-12-11T22:16:44.533Z,21.33
2022-12-11T22:19:27.813Z,16.30
2022-12-11T22:22:01.922Z,23.40
2022-12-11T22:24:38.145Z,22.77
2022-12-11T22:27:12.766Z,23.47
2022-12-11T22:30:01.948Z,25.23
2022-12-11T22:32:32.935Z,22.17
2022-12-11T22:35:27.254Z,18.33
2022-12-11T22:38:18.159Z,2.70
2022-12-11T22:41:07.389Z,23.73
2022-12-11T22:43:39.103Z,19.53
2022-12-11T22:46:09.058Z,22.83
2022-12-11T22:48:39.220Z,24.47
2022-12-11T22:51:13.818Z,22.83
2022-12-11T22:53:42.260Z,24.87
2022-12-11T22:56:13.516Z,20.83
2022-12-11T22:58:42.235Z,5.33
2022-12-11T23:01:16.680Z,10.63
2022-12-11T23:03:45.310Z,17.40
2022-12-11T23:06:14.558Z,12.00
2022-12-11T23:08:43.510Z,27.33
2022-12-11T23:11:14.410Z,15.57
2022-12-11T23:13:43.116Z,25.60
2022-12-11T23:16:11.659Z,8.03
2022-12-11T23:18:40.373Z,21.27
2022-12-11T23:21:08.909Z,22.27
2022-12-11T23:23:37.321Z,7.63
2022-12-11T23:26:06.229Z,14.80
2022-12-11T23:28:36.185Z,16.43
2022-12-11T23:31:04.791Z,23.47
2022-12-11T23:33:33.168Z,19.70
2022-12-11T23:36:01.838Z,24.57
2022-12-11T23:38:30.194Z,21.43
2022-12-11T23:41:00.758Z,21.57
2022-12-11T23:43:29.308Z,13.07
2022-12-11T23:45:59.146Z,17.93
2022-12-11T23:48:27.525Z,26.57
2022-12-11T23:50:59.488Z,28.00
2022-12-11T23:53:28.272Z,22.80
2022-12-11T23:55:56.705Z,29.97
2022-12-11T23:58:25.014Z,22.90
